sensor_id;sensor_type;location;lat;lon;timestamp;P1;durP1;ratioP1;P2;durP2;ratioP2
52320;SDS011;38261;54.090;13.382;2022-12-07T00:00:36;8.43;;;4.30;;
52320;SDS011;38261;54.090;13.382;2022-12-07T00:01:58;7.20;;;3.73;;
52320;SDS011;38261;54.090;13.382;2022-12-07T00:03:21;5.20;;;3.97;;
52320;SDS011;38261;54.090;13.382;2022-12-07T00:04:43;8.17;;;4.10;;
52320;SDS011;38261;54.090;13.382;2022-12-07T00:06:06;7.37;;;4.07;;
52320;SDS011;38261;54.090;13.382;2022-12-07T00:07:29;6.30;;;3.90;;
52320;SDS011;38261;54.090;13.382;2022-12-07T00:08:51;5.57;;;3.90;;
52320;SDS011;38261;54.090;13.382;2022-12-07T00:10:13;8.50;;;4.00;;
52320;SDS011;38261;54.090;13.382;2022-12-07T00:11:35;7.20;;;4.20;;
52320;SDS011;38261;54.090;13.382;2022-12-07T00:12:57;7.47;;;4.00;;
52320;SDS011;38261;54.090;13.382;2022-12-07T00:14:20;7.47;;;4.00;;
52320;SDS011;38261;54.090;13.382;2022-12-07T00:15:42;4.37;;;3.77;;
52320;SDS011;38261;54.090;13.382;2022-12-07T00:17:04;6.50;;;4.17;;
52320;SDS011;38261;54.090;13.382;2022-12-07T00:18:26;5.37;;;3.63;;
52320;SDS011;38261;54.090;13.382;2022-12-07T00:19:49;6.40;;;4.43;;
52320;SDS011;38261;54.090;13.382;2022-12-07T00:21:15;5.80;;;3.83;;
52320;SDS011;38261;54.090;13.382;2022-12-07T00:22:42;7.13;;;4.07;;
52320;SDS011;38261;54.090;13.382;2022-12-07T00:24:05;5.83;;;4.00;;
52320;SDS011;38261;54.090;13.382;2022-12-07T00:25:27;6.90;;;4.23;;
52320;SDS011;38261;54.090;13.382;2022-12-07T00:26:51;5.37;;;3.60;;
52320;SDS011;38261;54.090;13.382;2022-12-07T00:28:13;8.57;;;4.50;;
52320;SDS011;38261;54.090;13.382;2022-12-07T00:29:35;5.67;;;3.73;;
52320;SDS011;38261;54.090;13.382;2022-12-07T00:31:05;6.20;;;4.27;;
52320;SDS011;38261;54.090;13.382;2022-12-07T00:32:31;6.33;;;4.40;;
52320;SDS011;38261;54.090;13.382;2022-12-07T00:33:53;5.63;;;3.60;;
52320;SDS011;38261;54.090;13.382;2022-12-07T00:35:15;6.90;;;4.20;;
52320;SDS011;38261;54.090;13.382;2022-12-07T00:36:38;5.20;;;4.10;;
52320;SDS011;38261;54.090;13.382;2022-12-07T00:38:00;6.43;;;5.67;;
52320;SDS011;38261;54.090;13.382;2022-12-07T00:39:22;7.17;;;4.20;;
52320;SDS011;38261;54.090;13.382;2022-12-07T00:40:44;4.97;;;3.57;;
52320;SDS011;38261;54.090;13.382;2022-12-07T00:42:16;8.67;;;4.57;;
52320;SDS011;38261;54.090;13.382;2022-12-07T00:43:38;6.67;;;4.60;;
52320;SDS011;38261;54.090;13.382;2022-12-07T00:45:00;10.83;;;5.17;;
52320;SDS011;38261;54.090;13.382;2022-12-07T00:46:23;6.23;;;4.33;;
52320;SDS011;38261;54.090;13.382;2022-12-07T00:47:46;6.53;;;4.30;;
52320;SDS011;38261;54.090;13.382;2022-12-07T00:49:08;8.10;;;5.20;;
52320;SDS011;38261;54.090;13.382;2022-12-07T00:50:30;7.13;;;4.50;;
52320;SDS011;38261;54.090;13.382;2022-12-07T00:51:52;7.03;;;4.97;;
52320;SDS011;38261;54.090;13.382;2022-12-07T00:53:14;6.23;;;4.63;;
52320;SDS011;38261;54.090;13.382;2022-12-07T00:54:37;8.50;;;4.70;;
52320;SDS011;38261;54.090;13.382;2022-12-07T00:56:04;5.97;;;4.50;;
52320;SDS011;38261;54.090;13.382;2022-12-07T00:57:27;7.83;;;4.70;;
52320;SDS011;38261;54.090;13.382;2022-12-07T00:58:58;5.27;;;4.30;;
52320;SDS011;38261;54.090;13.382;2022-12-07T01:00:22;9.77;;;4.90;;
52320;SDS011;38261;54.090;13.382;2022-12-07T01:01:44;6.83;;;4.93;;
52320;SDS011;38261;54.090;13.382;2022-12-07T01:03:07;7.77;;;4.90;;
52320;SDS011;38261;54.090;13.382;2022-12-07T01:04:33;7.03;;;4.63;;
52320;SDS011;38261;54.090;13.382;2022-12-07T01:05:56;7.23;;;5.23;;
52320;SDS011;38261;54.090;13.382;2022-12-07T01:07:18;9.10;;;5.63;;
52320;SDS011;38261;54.090;13.382;2022-12-07T01:08:40;8.30;;;5.40;;
52320;SDS011;38261;54.090;13.382;2022-12-07T01:10:02;9.07;;;5.33;;
52320;SDS011;38261;54.090;13.382;2022-12-07T01:11:26;7.67;;;5.30;;
52320;SDS011;38261;54.090;13.382;2022-12-07T01:12:50;9.27;;;5.10;;
52320;SDS011;38261;54.090;13.382;2022-12-07T01:14:12;7.40;;;5.30;;
52320;SDS011;38261;54.090;13.382;2022-12-07T01:15:34;7.93;;;5.00;;
52320;SDS011;38261;54.090;13.382;2022-12-07T01:17:00;7.80;;;5.43;;
52320;SDS011;38261;54.090;13.382;2022-12-07T01:18:22;8.20;;;4.60;;
52320;SDS011;38261;54.090;13.382;2022-12-07T01:19:44;6.40;;;4.73;;
52320;SDS011;38261;54.090;13.382;2022-12-07T01:21:07;7.20;;;5.30;;
52320;SDS011;38261;54.090;13.382;2022-12-07T01:22:36;8.90;;;5.70;;
52320;SDS011;38261;54.090;13.382;2022-12-07T01:23:59;8.10;;;5.07;;
52320;SDS011;38261;54.090;13.382;2022-12-07T01:25:21;9.27;;;5.67;;
52320;SDS011;38261;54.090;13.382;2022-12-07T01:26:43;10.47;;;5.87;;
52320;SDS011;38261;54.090;13.382;2022-12-07T01:28:05;9.17;;;5.50;;
52320;SDS011;38261;54.090;13.382;2022-12-07T01:29:28;7.47;;;5.20;;
52320;SDS011;38261;54.090;13.382;2022-12-07T01:31:00;7.57;;;4.93;;
52320;SDS011;38261;54.090;13.382;2022-12-07T01:32:24;8.80;;;5.83;;
52320;SDS011;38261;54.090;13.382;2022-12-07T01:33:47;6.60;;;5.03;;
52320;SDS011;38261;54.090;13.382;2022-12-07T01:35:12;6.50;;;4.60;;
52320;SDS011;38261;54.090;13.382;2022-12-07T01:36:34;7.47;;;4.90;;
52320;SDS011;38261;54.090;13.382;2022-12-07T01:37:57;8.40;;;5.20;;
52320;SDS011;38261;54.090;13.382;2022-12-07T01:39:19;8.30;;;5.10;;
52320;SDS011;38261;54.090;13.382;2022-12-07T01:40:41;8.97;;;5.10;;
52320;SDS011;38261;54.090;13.382;2022-12-07T01:42:03;8.40;;;5.13;;
52320;SDS011;38261;54.090;13.382;2022-12-07T01:43:26;6.47;;;4.87;;
52320;SDS011;38261;54.090;13.382;2022-12-07T01:46:51;7.33;;;4.40;;
52320;SDS011;38261;54.090;13.382;2022-12-07T01:48:14;8.80;;;4.77;;
52320;SDS011;38261;54.090;13.382;2022-12-07T01:51:11;7.53;;;4.70;;
52320;SDS011;38261;54.090;13.382;2022-12-07T01:52:34;6.23;;;4.27;;
52320;SDS011;38261;54.090;13.382;2022-12-07T01:53:58;8.83;;;4.97;;
52320;SDS011;38261;54.090;13.382;2022-12-07T01:55:22;7.10;;;4.27;;
52320;SDS011;38261;54.090;13.382;2022-12-07T01:56:47;8.70;;;5.07;;
52320;SDS011;38261;54.090;13.382;2022-12-07T01:58:14;6.67;;;4.83;;
52320;SDS011;38261;54.090;13.382;2022-12-07T01:59:37;13.70;;;4.73;;
52320;SDS011;38261;54.090;13.382;2022-12-07T02:01:00;6.50;;;3.97;;
52320;SDS011;38261;54.090;13.382;2022-12-07T02:02:23;7.27;;;4.80;;
52320;SDS011;38261;54.090;13.382;2022-12-07T02:03:55;6.87;;;4.53;;
52320;SDS011;38261;54.090;13.382;2022-12-07T02:05:17;6.70;;;4.40;;
52320;SDS011;38261;54.090;13.382;2022-12-07T02:06:40;5.80;;;4.13;;
52320;SDS011;38261;54.090;13.382;2022-12-07T02:08:04;7.27;;;4.70;;
52320;SDS011;38261;54.090;13.382;2022-12-07T02:09:26;6.47;;;4.50;;
52320;SDS011;38261;54.090;13.382;2022-12-07T02:10:48;6.17;;;4.77;;
52320;SDS011;38261;54.090;13.382;2022-12-07T02:12:10;6.70;;;4.37;;
52320;SDS011;38261;54.090;13.382;2022-12-07T02:13:33;6.27;;;4.13;;
52320;SDS011;38261;54.090;13.382;2022-12-07T02:14:58;7.80;;;4.97;;
52320;SDS011;38261;54.090;13.382;2022-12-07T02:18:09;7.53;;;4.60;;
52320;SDS011;38261;54.090;13.382;2022-12-07T02:21:53;10.43;;;5.03;;
52320;SDS011;38261;54.090;13.382;2022-12-07T02:28:35;6.50;;;4.17;;
52320;SDS011;38261;54.090;13.382;2022-12-07T02:30:10;7.80;;;4.17;;
52320;SDS011;38261;54.090;13.382;2022-12-07T02:31:38;5.83;;;4.33;;
52320;SDS011;38261;54.090;13.382;2022-12-07T02:33:08;7.30;;;4.40;;
52320;SDS011;38261;54.090;13.382;2022-12-07T02:38:26;8.50;;;4.90;;
52320;SDS011;38261;54.090;13.382;2022-12-07T02:40:01;8.73;;;4.67;;
52320;SDS011;38261;54.090;13.382;2022-12-07T02:41:44;6.27;;;4.40;;
52320;SDS011;38261;54.090;13.382;2022-12-07T02:44:40;6.23;;;4.30;;
52320;SDS011;38261;54.090;13.382;2022-12-07T02:46:08;6.27;;;4.33;;
52320;SDS011;38261;54.090;13.382;2022-12-07T02:47:35;7.33;;;4.80;;
52320;SDS011;38261;54.090;13.382;2022-12-07T02:48:58;6.33;;;4.53;;
52320;SDS011;38261;54.090;13.382;2022-12-07T02:50:21;8.13;;;5.27;;
52320;SDS011;38261;54.090;13.382;2022-12-07T02:51:44;7.67;;;4.87;;
52320;SDS011;38261;54.090;13.382;2022-12-07T02:53:27;6.33;;;4.27;;
52320;SDS011;38261;54.090;13.382;2022-12-07T02:54:55;6.60;;;3.93;;
52320;SDS011;38261;54.090;13.382;2022-12-07T02:58:28;5.70;;;3.90;;
52320;SDS011;38261;54.090;13.382;2022-12-07T03:01:30;6.27;;;3.67;;
52320;SDS011;38261;54.090;13.382;2022-12-07T03:03:04;7.87;;;4.50;;
52320;SDS011;38261;54.090;13.382;2022-12-07T03:04:33;9.53;;;4.60;;
52320;SDS011;38261;54.090;13.382;2022-12-07T03:06:08;7.97;;;4.40;;
52320;SDS011;38261;54.090;13.382;2022-12-07T03:11:22;7.13;;;4.37;;
52320;SDS011;38261;54.090;13.382;2022-12-07T03:14:31;6.50;;;4.20;;
52320;SDS011;38261;54.090;13.382;2022-12-07T03:17:41;7.33;;;4.63;;
52320;SDS011;38261;54.090;13.382;2022-12-07T03:19:07;10.23;;;5.00;;
52320;SDS011;38261;54.090;13.382;2022-12-07T03:20:35;7.33;;;4.60;;
52320;SDS011;38261;54.090;13.382;2022-12-07T03:22:05;7.40;;;4.17;;
52320;SDS011;38261;54.090;13.382;2022-12-07T03:23:31;6.30;;;4.33;;
52320;SDS011;38261;54.090;13.382;2022-12-07T03:24:58;8.77;;;5.57;;
52320;SDS011;38261;54.090;13.382;2022-12-07T03:26:23;9.50;;;4.57;;
52320;SDS011;38261;54.090;13.382;2022-12-07T03:28:02;7.43;;;4.47;;
52320;SDS011;38261;54.090;13.382;2022-12-07T03:29:30;8.50;;;4.40;;
52320;SDS011;38261;54.090;13.382;2022-12-07T03:30:58;8.70;;;4.70;;
52320;SDS011;38261;54.090;13.382;2022-12-07T03:32:47;6.57;;;4.40;;
52320;SDS011;38261;54.090;13.382;2022-12-07T03:35:59;7.53;;;5.13;;
52320;SDS011;38261;54.090;13.382;2022-12-07T03:37:29;6.60;;;4.93;;
52320;SDS011;38261;54.090;13.382;2022-12-07T03:39:00;8.47;;;5.03;;
52320;SDS011;38261;54.090;13.382;2022-12-07T03:40:43;8.00;;;4.90;;
52320;SDS011;38261;54.090;13.382;2022-12-07T03:42:11;6.80;;;4.63;;
52320;SDS011;38261;54.090;13.382;2022-12-07T03:43:33;8.40;;;4.87;;
52320;SDS011;38261;54.090;13.382;2022-12-07T03:44:57;7.17;;;4.27;;
52320;SDS011;38261;54.090;13.382;2022-12-07T03:48:08;6.50;;;4.27;;
52320;SDS011;38261;54.090;13.382;2022-12-07T03:50:04;5.90;;;4.00;;
52320;SDS011;38261;54.090;13.382;2022-12-07T03:53:11;7.80;;;4.73;;
52320;SDS011;38261;54.090;13.382;2022-12-07T03:56:20;7.53;;;4.40;;
52320;SDS011;38261;54.090;13.382;2022-12-07T03:57:44;7.80;;;4.63;;
52320;SDS011;38261;54.090;13.382;2022-12-07T03:59:09;8.97;;;4.40;;
52320;SDS011;38261;54.090;13.382;2022-12-07T04:00:32;7.87;;;4.47;;
52320;SDS011;38261;54.090;13.382;2022-12-07T04:01:56;5.97;;;4.57;;
52320;SDS011;38261;54.090;13.382;2022-12-07T04:03:23;7.83;;;4.60;;
52320;SDS011;38261;54.090;13.382;2022-12-07T04:04:45;11.33;;;5.27;;
52320;SDS011;38261;54.090;13.382;2022-12-07T04:06:07;8.33;;;4.87;;
52320;SDS011;38261;54.090;13.382;2022-12-07T04:07:29;7.20;;;4.87;;
52320;SDS011;38261;54.090;13.382;2022-12-07T04:08:51;7.00;;;4.53;;
52320;SDS011;38261;54.090;13.382;2022-12-07T04:10:14;7.27;;;4.83;;
52320;SDS011;38261;54.090;13.382;2022-12-07T04:11:36;10.33;;;4.77;;
52320;SDS011;38261;54.090;13.382;2022-12-07T04:12:58;10.93;;;4.90;;
52320;SDS011;38261;54.090;13.382;2022-12-07T04:14:20;7.33;;;4.70;;
52320;SDS011;38261;54.090;13.382;2022-12-07T04:15:42;7.87;;;4.80;;
52320;SDS011;38261;54.090;13.382;2022-12-07T04:17:04;6.13;;;4.10;;
52320;SDS011;38261;54.090;13.382;2022-12-07T04:18:26;7.30;;;4.60;;
52320;SDS011;38261;54.090;13.382;2022-12-07T04:19:48;7.57;;;4.90;;
52320;SDS011;38261;54.090;13.382;2022-12-07T04:21:11;6.73;;;4.30;;
52320;SDS011;38261;54.090;13.382;2022-12-07T04:22:33;6.37;;;4.13;;
52320;SDS011;38261;54.090;13.382;2022-12-07T04:23:55;7.83;;;4.20;;
52320;SDS011;38261;54.090;13.382;2022-12-07T04:25:17;6.70;;;4.30;;
52320;SDS011;38261;54.090;13.382;2022-12-07T04:26:39;7.43;;;4.00;;
52320;SDS011;38261;54.090;13.382;2022-12-07T04:28:02;5.47;;;3.97;;
52320;SDS011;38261;54.090;13.382;2022-12-07T04:29:25;5.03;;;3.73;;
52320;SDS011;38261;54.090;13.382;2022-12-07T04:30:47;5.80;;;4.23;;
52320;SDS011;38261;54.090;13.382;2022-12-07T04:32:09;6.83;;;4.20;;
52320;SDS011;38261;54.090;13.382;2022-12-07T04:33:31;7.80;;;4.00;;
52320;SDS011;38261;54.090;13.382;2022-12-07T04:34:53;5.80;;;4.07;;
52320;SDS011;38261;54.090;13.382;2022-12-07T04:36:16;5.30;;;3.57;;
52320;SDS011;38261;54.090;13.382;2022-12-07T04:37:41;6.60;;;3.63;;
52320;SDS011;38261;54.090;13.382;2022-12-07T04:39:03;6.43;;;4.07;;
52320;SDS011;38261;54.090;13.382;2022-12-07T04:40:27;6.90;;;4.27;;
52320;SDS011;38261;54.090;13.382;2022-12-07T04:41:50;5.45;;;3.60;;
52320;SDS011;38261;54.090;13.382;2022-12-07T04:43:12;8.30;;;4.13;;
52320;SDS011;38261;54.090;13.382;2022-12-07T04:44:34;8.80;;;4.70;;
52320;SDS011;38261;54.090;13.382;2022-12-07T04:45:56;5.80;;;4.03;;
52320;SDS011;38261;54.090;13.382;2022-12-07T04:47:18;6.60;;;4.40;;
52320;SDS011;38261;54.090;13.382;2022-12-07T04:48:40;5.80;;;3.80;;
52320;SDS011;38261;54.090;13.382;2022-12-07T04:50:03;5.70;;;4.00;;
52320;SDS011;38261;54.090;13.382;2022-12-07T04:51:27;4.70;;;3.40;;
52320;SDS011;38261;54.090;13.382;2022-12-07T04:52:50;5.53;;;3.77;;
52320;SDS011;38261;54.090;13.382;2022-12-07T04:54:12;6.07;;;4.37;;
52320;SDS011;38261;54.090;13.382;2022-12-07T04:55:36;5.80;;;3.53;;
52320;SDS011;38261;54.090;13.382;2022-12-07T04:56:58;5.10;;;3.73;;
52320;SDS011;38261;54.090;13.382;2022-12-07T04:58:20;4.27;;;3.40;;
52320;SDS011;38261;54.090;13.382;2022-12-07T04:59:42;6.00;;;3.93;;
52320;SDS011;38261;54.090;13.382;2022-12-07T05:01:06;4.93;;;3.37;;
52320;SDS011;38261;54.090;13.382;2022-12-07T05:02:29;4.37;;;3.03;;
52320;SDS011;38261;54.090;13.382;2022-12-07T05:03:51;4.47;;;2.83;;
52320;SDS011;38261;54.090;13.382;2022-12-07T05:05:13;4.87;;;3.40;;
52320;SDS011;38261;54.090;13.382;2022-12-07T05:06:35;5.03;;;3.50;;
52320;SDS011;38261;54.090;13.382;2022-12-07T05:07:57;4.00;;;3.10;;
52320;SDS011;38261;54.090;13.382;2022-12-07T05:09:19;5.40;;;3.43;;
52320;SDS011;38261;54.090;13.382;2022-12-07T05:10:42;4.20;;;3.27;;
52320;SDS011;38261;54.090;13.382;2022-12-07T05:12:04;4.43;;;3.00;;
52320;SDS011;38261;54.090;13.382;2022-12-07T05:13:26;5.53;;;3.67;;
52320;SDS011;38261;54.090;13.382;2022-12-07T05:14:48;6.10;;;3.70;;
52320;SDS011;38261;54.090;13.382;2022-12-07T05:16:10;5.30;;;3.20;;
52320;SDS011;38261;54.090;13.382;2022-12-07T05:17:32;5.10;;;2.90;;
52320;SDS011;38261;54.090;13.382;2022-12-07T05:18:54;6.50;;;3.20;;
52320;SDS011;38261;54.090;13.382;2022-12-07T05:20:16;3.40;;;2.80;;
52320;SDS011;38261;54.090;13.382;2022-12-07T05:21:39;4.73;;;3.70;;
52320;SDS011;38261;54.090;13.382;2022-12-07T05:23:01;4.70;;;3.17;;
52320;SDS011;38261;54.090;13.382;2022-12-07T05:24:23;4.67;;;3.10;;
52320;SDS011;38261;54.090;13.382;2022-12-07T05:25:46;5.40;;;3.30;;
52320;SDS011;38261;54.090;13.382;2022-12-07T05:27:08;5.07;;;3.40;;
52320;SDS011;38261;54.090;13.382;2022-12-07T05:28:30;5.33;;;3.10;;
52320;SDS011;38261;54.090;13.382;2022-12-07T05:29:52;9.10;;;4.07;;
52320;SDS011;38261;54.090;13.382;2022-12-07T05:31:14;5.40;;;3.63;;
52320;SDS011;38261;54.090;13.382;2022-12-07T05:32:36;5.20;;;3.90;;
52320;SDS011;38261;54.090;13.382;2022-12-07T05:33:58;6.33;;;4.23;;
52320;SDS011;38261;54.090;13.382;2022-12-07T05:35:21;4.40;;;3.20;;
52320;SDS011;38261;54.090;13.382;2022-12-07T05:36:43;5.63;;;3.93;;
52320;SDS011;38261;54.090;13.382;2022-12-07T05:38:05;7.67;;;3.57;;
52320;SDS011;38261;54.090;13.382;2022-12-07T05:39:27;6.50;;;3.90;;
52320;SDS011;38261;54.090;13.382;2022-12-07T05:40:49;6.23;;;4.50;;
52320;SDS011;38261;54.090;13.382;2022-12-07T05:42:11;5.10;;;3.50;;
52320;SDS011;38261;54.090;13.382;2022-12-07T05:43:33;5.43;;;3.47;;
52320;SDS011;38261;54.090;13.382;2022-12-07T05:44:55;4.83;;;3.50;;
52320;SDS011;38261;54.090;13.382;2022-12-07T05:46:17;6.50;;;3.87;;
52320;SDS011;38261;54.090;13.382;2022-12-07T05:47:39;8.03;;;4.67;;
52320;SDS011;38261;54.090;13.382;2022-12-07T05:49:02;6.70;;;4.53;;
52320;SDS011;38261;54.090;13.382;2022-12-07T05:50:24;6.90;;;4.40;;
52320;SDS011;38261;54.090;13.382;2022-12-07T05:51:47;6.87;;;4.10;;
52320;SDS011;38261;54.090;13.382;2022-12-07T05:53:09;5.50;;;3.60;;
52320;SDS011;38261;54.090;13.382;2022-12-07T05:54:31;6.00;;;3.93;;
52320;SDS011;38261;54.090;13.382;2022-12-07T05:55:53;9.37;;;4.90;;
52320;SDS011;38261;54.090;13.382;2022-12-07T05:57:15;6.57;;;4.00;;
52320;SDS011;38261;54.090;13.382;2022-12-07T05:58:38;6.07;;;4.90;;
52320;SDS011;38261;54.090;13.382;2022-12-07T06:00:18;8.27;;;4.67;;
52320;SDS011;38261;54.090;13.382;2022-12-07T06:01:41;7.20;;;4.50;;
52320;SDS011;38261;54.090;13.382;2022-12-07T06:03:03;5.83;;;3.60;;
52320;SDS011;38261;54.090;13.382;2022-12-07T06:04:26;7.80;;;4.70;;
52320;SDS011;38261;54.090;13.382;2022-12-07T06:05:50;5.67;;;4.20;;
52320;SDS011;38261;54.090;13.382;2022-12-07T06:07:14;6.80;;;4.67;;
52320;SDS011;38261;54.090;13.382;2022-12-07T06:08:37;5.63;;;4.00;;
52320;SDS011;38261;54.090;13.382;2022-12-07T06:09:59;6.87;;;4.43;;
52320;SDS011;38261;54.090;13.382;2022-12-07T06:11:22;8.00;;;4.90;;
52320;SDS011;38261;54.090;13.382;2022-12-07T06:13:03;8.60;;;5.27;;
52320;SDS011;38261;54.090;13.382;2022-12-07T06:14:25;8.40;;;5.00;;
52320;SDS011;38261;54.090;13.382;2022-12-07T06:15:47;10.63;;;5.43;;
52320;SDS011;38261;54.090;13.382;2022-12-07T06:17:10;8.07;;;4.93;;
52320;SDS011;38261;54.090;13.382;2022-12-07T06:18:33;8.95;;;5.50;;
52320;SDS011;38261;54.090;13.382;2022-12-07T06:19:55;10.40;;;5.03;;
52320;SDS011;38261;54.090;13.382;2022-12-07T06:21:17;9.70;;;5.20;;
52320;SDS011;38261;54.090;13.382;2022-12-07T06:22:39;9.50;;;4.60;;
52320;SDS011;38261;54.090;13.382;2022-12-07T06:24:02;13.20;;;5.40;;
52320;SDS011;38261;54.090;13.382;2022-12-07T06:25:24;10.93;;;5.70;;
52320;SDS011;38261;54.090;13.382;2022-12-07T06:26:46;10.83;;;6.07;;
52320;SDS011;38261;54.090;13.382;2022-12-07T06:28:08;13.20;;;6.47;;
52320;SDS011;38261;54.090;13.382;2022-12-07T06:29:30;12.80;;;7.00;;
52320;SDS011;38261;54.090;13.382;2022-12-07T06:30:59;9.70;;;5.37;;
52320;SDS011;38261;54.090;13.382;2022-12-07T06:32:22;11.10;;;5.50;;
52320;SDS011;38261;54.090;13.382;2022-12-07T06:33:44;12.83;;;6.13;;
52320;SDS011;38261;54.090;13.382;2022-12-07T06:35:06;10.33;;;5.17;;
52320;SDS011;38261;54.090;13.382;2022-12-07T06:36:29;12.50;;;7.37;;
52320;SDS011;38261;54.090;13.382;2022-12-07T06:37:51;14.47;;;6.30;;
52320;SDS011;38261;54.090;13.382;2022-12-07T06:39:13;9.50;;;5.67;;
52320;SDS011;38261;54.090;13.382;2022-12-07T06:40:35;12.77;;;5.90;;
52320;SDS011;38261;54.090;13.382;2022-12-07T06:41:57;13.57;;;6.97;;
52320;SDS011;38261;54.090;13.382;2022-12-07T06:43:19;11.37;;;6.47;;
52320;SDS011;38261;54.090;13.382;2022-12-07T06:44:42;11.63;;;5.97;;
52320;SDS011;38261;54.090;13.382;2022-12-07T06:46:04;14.60;;;6.07;;
52320;SDS011;38261;54.090;13.382;2022-12-07T06:47:26;13.17;;;6.53;;
52320;SDS011;38261;54.090;13.382;2022-12-07T06:49:06;17.23;;;7.13;;
52320;SDS011;38261;54.090;13.382;2022-12-07T06:50:29;12.80;;;6.53;;
52320;SDS011;38261;54.090;13.382;2022-12-07T06:51:51;14.97;;;6.40;;
52320;SDS011;38261;54.090;13.382;2022-12-07T06:53:13;19.47;;;8.33;;
52320;SDS011;38261;54.090;13.382;2022-12-07T06:54:35;16.27;;;6.60;;
52320;SDS011;38261;54.090;13.382;2022-12-07T06:55:57;16.77;;;7.10;;
52320;SDS011;38261;54.090;13.382;2022-12-07T06:57:19;15.17;;;7.07;;
52320;SDS011;38261;54.090;13.382;2022-12-07T06:58:42;20.47;;;7.87;;
52320;SDS011;38261;54.090;13.382;2022-12-07T07:00:04;17.17;;;7.70;;
52320;SDS011;38261;54.090;13.382;2022-12-07T07:01:27;16.93;;;7.83;;
52320;SDS011;38261;54.090;13.382;2022-12-07T07:02:50;15.67;;;6.73;;
52320;SDS011;38261;54.090;13.382;2022-12-07T07:04:12;13.43;;;6.57;;
52320;SDS011;38261;54.090;13.382;2022-12-07T07:05:34;21.47;;;8.77;;
52320;SDS011;38261;54.090;13.382;2022-12-07T07:06:56;24.97;;;7.33;;
52320;SDS011;38261;54.090;13.382;2022-12-07T07:08:21;17.90;;;7.23;;
52320;SDS011;38261;54.090;13.382;2022-12-07T07:09:44;21.30;;;8.27;;
52320;SDS011;38261;54.090;13.382;2022-12-07T07:11:06;15.00;;;7.03;;
52320;SDS011;38261;54.090;13.382;2022-12-07T07:12:29;15.67;;;6.37;;
52320;SDS011;38261;54.090;13.382;2022-12-07T07:13:51;25.73;;;8.10;;
52320;SDS011;38261;54.090;13.382;2022-12-07T07:15:14;27.33;;;8.13;;
52320;SDS011;38261;54.090;13.382;2022-12-07T07:16:36;17.27;;;8.00;;
52320;SDS011;38261;54.090;13.382;2022-12-07T07:17:58;17.47;;;8.20;;
52320;SDS011;38261;54.090;13.382;2022-12-07T07:19:28;18.83;;;7.97;;
52320;SDS011;38261;54.090;13.382;2022-12-07T07:20:50;18.37;;;7.40;;
52320;SDS011;38261;54.090;13.382;2022-12-07T07:22:13;20.23;;;8.63;;
52320;SDS011;38261;54.090;13.382;2022-12-07T07:23:35;21.67;;;7.83;;
52320;SDS011;38261;54.090;13.382;2022-12-07T07:24:57;19.27;;;8.03;;
52320;SDS011;38261;54.090;13.382;2022-12-07T07:26:19;19.33;;;7.27;;
52320;SDS011;38261;54.090;13.382;2022-12-07T07:27:43;20.73;;;7.40;;
52320;SDS011;38261;54.090;13.382;2022-12-07T07:29:05;34.13;;;7.60;;
52320;SDS011;38261;54.090;13.382;2022-12-07T07:30:28;18.33;;;7.50;;
52320;SDS011;38261;54.090;13.382;2022-12-07T07:31:50;22.70;;;7.23;;
52320;SDS011;38261;54.090;13.382;2022-12-07T07:33:12;15.70;;;7.80;;
52320;SDS011;38261;54.090;13.382;2022-12-07T07:34:35;16.13;;;6.47;;
52320;SDS011;38261;54.090;13.382;2022-12-07T07:35:57;16.63;;;8.30;;
52320;SDS011;38261;54.090;13.382;2022-12-07T07:37:19;17.03;;;7.00;;
52320;SDS011;38261;54.090;13.382;2022-12-07T07:38:42;16.93;;;6.83;;
52320;SDS011;38261;54.090;13.382;2022-12-07T07:40:05;18.47;;;7.60;;
52320;SDS011;38261;54.090;13.382;2022-12-07T07:41:27;16.13;;;7.47;;
52320;SDS011;38261;54.090;13.382;2022-12-07T07:42:50;13.20;;;7.10;;
52320;SDS011;38261;54.090;13.382;2022-12-07T07:44:14;16.50;;;7.60;;
52320;SDS011;38261;54.090;13.382;2022-12-07T07:45:36;12.00;;;5.90;;
52320;SDS011;38261;54.090;13.382;2022-12-07T07:46:58;21.73;;;7.37;;
52320;SDS011;38261;54.090;13.382;2022-12-07T07:48:20;16.37;;;7.13;;
52320;SDS011;38261;54.090;13.382;2022-12-07T07:49:44;14.27;;;7.03;;
52320;SDS011;38261;54.090;13.382;2022-12-07T07:51:08;19.40;;;7.60;;
52320;SDS011;38261;54.090;13.382;2022-12-07T07:52:31;11.10;;;6.07;;
52320;SDS011;38261;54.090;13.382;2022-12-07T07:53:53;16.80;;;6.80;;
52320;SDS011;38261;54.090;13.382;2022-12-07T07:55:15;14.60;;;6.33;;
52320;SDS011;38261;54.090;13.382;2022-12-07T07:56:38;15.50;;;6.80;;
52320;SDS011;38261;54.090;13.382;2022-12-07T07:58:00;13.40;;;6.90;;
52320;SDS011;38261;54.090;13.382;2022-12-07T07:59:22;12.70;;;6.13;;
52320;SDS011;38261;54.090;13.382;2022-12-07T08:00:44;15.70;;;6.73;;
52320;SDS011;38261;54.090;13.382;2022-12-07T08:02:07;12.50;;;5.80;;
52320;SDS011;38261;54.090;13.382;2022-12-07T08:03:35;13.00;;;5.90;;
52320;SDS011;38261;54.090;13.382;2022-12-07T08:04:57;13.10;;;6.30;;
52320;SDS011;38261;54.090;13.382;2022-12-07T08:06:19;14.80;;;6.33;;
52320;SDS011;38261;54.090;13.382;2022-12-07T08:07:42;10.97;;;6.30;;
52320;SDS011;38261;54.090;13.382;2022-12-07T08:09:04;15.43;;;6.40;;
52320;SDS011;38261;54.090;13.382;2022-12-07T08:10:27;18.23;;;6.20;;
52320;SDS011;38261;54.090;13.382;2022-12-07T08:11:49;11.80;;;6.37;;
52320;SDS011;38261;54.090;13.382;2022-12-07T08:13:12;13.00;;;6.30;;
52320;SDS011;38261;54.090;13.382;2022-12-07T08:14:36;13.50;;;5.70;;
52320;SDS011;38261;54.090;13.382;2022-12-07T08:15:58;15.27;;;6.90;;
52320;SDS011;38261;54.090;13.382;2022-12-07T08:17:29;14.27;;;6.30;;
52320;SDS011;38261;54.090;13.382;2022-12-07T08:18:51;16.17;;;7.37;;
52320;SDS011;38261;54.090;13.382;2022-12-07T08:20:13;12.47;;;6.33;;
52320;SDS011;38261;54.090;13.382;2022-12-07T08:21:35;11.13;;;6.10;;
52320;SDS011;38261;54.090;13.382;2022-12-07T08:22:58;12.80;;;5.77;;
52320;SDS011;38261;54.090;13.382;2022-12-07T08:24:21;11.77;;;6.33;;
52320;SDS011;38261;54.090;13.382;2022-12-07T08:25:43;15.70;;;5.80;;
52320;SDS011;38261;54.090;13.382;2022-12-07T08:27:05;9.60;;;5.23;;
52320;SDS011;38261;54.090;13.382;2022-12-07T08:28:28;11.67;;;5.73;;
52320;SDS011;38261;54.090;13.382;2022-12-07T08:29:50;13.83;;;6.43;;
52320;SDS011;38261;54.090;13.382;2022-12-07T08:31:13;12.63;;;5.80;;
52320;SDS011;38261;54.090;13.382;2022-12-07T08:32:38;16.00;;;6.97;;
52320;SDS011;38261;54.090;13.382;2022-12-07T08:34:00;12.73;;;5.63;;
52320;SDS011;38261;54.090;13.382;2022-12-07T08:35:22;15.83;;;6.57;;
52320;SDS011;38261;54.090;13.382;2022-12-07T08:36:45;12.90;;;6.27;;
52320;SDS011;38261;54.090;13.382;2022-12-07T08:38:07;11.90;;;6.00;;
52320;SDS011;38261;54.090;13.382;2022-12-07T08:39:29;12.97;;;6.10;;
52320;SDS011;38261;54.090;13.382;2022-12-07T08:40:56;18.10;;;7.83;;
52320;SDS011;38261;54.090;13.382;2022-12-07T08:42:20;13.33;;;6.47;;
52320;SDS011;38261;54.090;13.382;2022-12-07T08:43:44;13.40;;;6.53;;
52320;SDS011;38261;54.090;13.382;2022-12-07T08:45:07;13.93;;;6.10;;
52320;SDS011;38261;54.090;13.382;2022-12-07T08:46:35;10.33;;;6.30;;
52320;SDS011;38261;54.090;13.382;2022-12-07T08:48:24;12.00;;;5.73;;
52320;SDS011;38261;54.090;13.382;2022-12-07T08:49:47;12.60;;;6.40;;
52320;SDS011;38261;54.090;13.382;2022-12-07T08:51:13;13.63;;;6.87;;
52320;SDS011;38261;54.090;13.382;2022-12-07T08:52:35;15.90;;;6.40;;